sensor_id;sensor_type;location;lat;lon;timestamp;P1;durP1;ratioP1;P2;durP2;ratioP2
59105;SDS011;44891;50.204;8.132;2023-07-29T00:00:04;2.88;;;2.63;;
59105;SDS011;44891;50.204;8.132;2023-07-29T00:04:13;3.13;;;2.83;;
59105;SDS011;44891;50.204;8.132;2023-07-29T00:08:15;3.08;;;2.88;;
59105;SDS011;44891;50.204;8.132;2023-07-29T00:12:20;3.88;;;3.20;;
59105;SDS011;44891;50.204;8.132;2023-07-29T00:16:22;3.00;;;2.70;;
59105;SDS011;44891;50.204;8.132;2023-07-29T00:20:24;2.88;;;2.67;;
59105;SDS011;44891;50.204;8.132;2023-07-29T00:24:27;3.00;;;2.75;;
59105;SDS011;44891;50.204;8.132;2023-07-29T00:28:30;3.30;;;2.67;;
59105;SDS011;44891;50.204;8.132;2023-07-29T00:32:34;2.85;;;2.65;;
59105;SDS011;44891;50.204;8.132;2023-07-29T00:36:37;2.80;;;2.60;;
59105;SDS011;44891;50.204;8.132;2023-07-29T00:40:39;2.50;;;2.30;;
59105;SDS011;44891;50.204;8.132;2023-07-29T00:44:43;3.53;;;2.75;;
59105;SDS011;44891;50.204;8.132;2023-07-29T00:48:45;2.80;;;2.60;;
59105;SDS011;44891;50.204;8.132;2023-07-29T00:52:48;4.97;;;2.90;;
59105;SDS011;44891;50.204;8.132;2023-07-29T00:56:50;3.80;;;3.50;;
59105;SDS011;44891;50.204;8.132;2023-07-29T01:00:54;3.70;;;3.40;;
59105;SDS011;44891;50.204;8.132;2023-07-29T01:04:58;3.50;;;3.20;;
59105;SDS011;44891;50.204;8.132;2023-07-29T01:09:02;4.00;;;3.33;;
59105;SDS011;44891;50.204;8.132;2023-07-29T01:13:08;3.70;;;3.40;;
59105;SDS011;44891;50.204;8.132;2023-07-29T01:17:19;3.90;;;3.60;;
59105;SDS011;44891;50.204;8.132;2023-07-29T01:21:24;4.45;;;3.78;;
59105;SDS011;44891;50.204;8.132;2023-07-29T01:25:30;4.22;;;3.83;;
59105;SDS011;44891;50.204;8.132;2023-07-29T01:29:32;3.85;;;3.55;;
59105;SDS011;44891;50.204;8.132;2023-07-29T01:33:39;4.47;;;4.07;;
59105;SDS011;44891;50.204;8.132;2023-07-29T01:37:44;5.18;;;4.35;;
59105;SDS011;44891;50.204;8.132;2023-07-29T01:41:52;5.10;;;4.60;;
59105;SDS011;44891;50.204;8.132;2023-07-29T01:45:54;4.82;;;4.43;;
59105;SDS011;44891;50.204;8.132;2023-07-29T01:49:57;4.57;;;4.18;;
59105;SDS011;44891;50.204;8.132;2023-07-29T01:53:59;4.25;;;3.92;;
59105;SDS011;44891;50.204;8.132;2023-07-29T01:58:03;5.10;;;4.60;;
59105;SDS011;44891;50.204;8.132;2023-07-29T02:02:08;6.10;;;5.50;;
59105;SDS011;44891;50.204;8.132;2023-07-29T02:06:10;5.13;;;4.63;;
59105;SDS011;44891;50.204;8.132;2023-07-29T02:10:12;5.07;;;4.57;;
59105;SDS011;44891;50.204;8.132;2023-07-29T02:14:16;5.07;;;4.57;;
59105;SDS011;44891;50.204;8.132;2023-07-29T02:18:18;4.88;;;4.47;;
59105;SDS011;44891;50.204;8.132;2023-07-29T02:22:20;4.82;;;4.30;;
59105;SDS011;44891;50.204;8.132;2023-07-29T02:26:22;4.82;;;4.30;;
59105;SDS011;44891;50.204;8.132;2023-07-29T02:30:26;4.13;;;3.72;;
59105;SDS011;44891;50.204;8.132;2023-07-29T02:34:28;4.43;;;4.03;;
59105;SDS011;44891;50.204;8.132;2023-07-29T02:38:31;4.32;;;3.92;;
59105;SDS011;44891;50.204;8.132;2023-07-29T02:42:33;4.07;;;3.60;;
59105;SDS011;44891;50.204;8.132;2023-07-29T02:46:37;3.97;;;3.58;;
59105;SDS011;44891;50.204;8.132;2023-07-29T02:50:39;4.13;;;3.72;;
59105;SDS011;44891;50.204;8.132;2023-07-29T02:54:42;4.40;;;4.00;;
59105;SDS011;44891;50.204;8.132;2023-07-29T02:58:44;4.18;;;3.78;;
59105;SDS011;44891;50.204;8.132;2023-07-29T03:02:48;4.25;;;3.85;;
59105;SDS011;44891;50.204;8.132;2023-07-29T03:06:51;4.30;;;3.90;;
59105;SDS011;44891;50.204;8.132;2023-07-29T03:10:53;3.97;;;3.67;;
59105;SDS011;44891;50.204;8.132;2023-07-29T03:14:57;4.68;;;4.13;;
59105;SDS011;44891;50.204;8.132;2023-07-29T03:19:02;4.72;;;4.32;;
59105;SDS011;44891;50.204;8.132;2023-07-29T03:23:04;4.47;;;4.00;;
59105;SDS011;44891;50.204;8.132;2023-07-29T03:27:06;4.25;;;3.85;;
59105;SDS011;44891;50.204;8.132;2023-07-29T03:31:10;4.28;;;3.88;;
59105;SDS011;44891;50.204;8.132;2023-07-29T03:35:14;4.07;;;3.67;;
59105;SDS011;44891;50.204;8.132;2023-07-29T03:39:17;4.57;;;4.00;;
59105;SDS011;44891;50.204;8.132;2023-07-29T03:43:19;4.25;;;3.70;;
59105;SDS011;44891;50.204;8.132;2023-07-29T03:47:23;4.35;;;3.95;;
59105;SDS011;44891;50.204;8.132;2023-07-29T03:51:27;4.35;;;3.95;;
59105;SDS011;44891;50.204;8.132;2023-07-29T03:55:29;4.00;;;3.70;;
59105;SDS011;44891;50.204;8.132;2023-07-29T03:59:32;3.70;;;3.40;;
59105;SDS011;44891;50.204;8.132;2023-07-29T04:03:34;4.45;;;4.05;;
59105;SDS011;44891;50.204;8.132;2023-07-29T04:07:38;5.80;;;4.10;;
59105;SDS011;44891;50.204;8.132;2023-07-29T04:11:41;5.53;;;4.15;;
59105;SDS011;44891;50.204;8.132;2023-07-29T04:15:43;3.85;;;3.55;;
59105;SDS011;44891;50.204;8.132;2023-07-29T04:19:45;5.13;;;4.10;;
59105;SDS011;44891;50.204;8.132;2023-07-29T04:23:51;4.28;;;3.88;;
59105;SDS011;44891;50.204;8.132;2023-07-29T04:27:54;4.05;;;3.65;;
59105;SDS011;44891;50.204;8.132;2023-07-29T04:31:58;4.40;;;4.00;;
59105;SDS011;44891;50.204;8.132;2023-07-29T04:36:02;4.25;;;3.58;;
59105;SDS011;44891;50.204;8.132;2023-07-29T04:40:07;4.05;;;3.70;;
59105;SDS011;44891;50.204;8.132;2023-07-29T04:44:10;3.60;;;3.30;;
59105;SDS011;44891;50.204;8.132;2023-07-29T04:48:12;4.05;;;3.63;;
59105;SDS011;44891;50.204;8.132;2023-07-29T04:52:15;4.35;;;3.53;;
59105;SDS011;44891;50.204;8.132;2023-07-29T04:56:18;3.70;;;3.40;;
59105;SDS011;44891;50.204;8.132;2023-07-29T05:00:20;4.00;;;3.70;;
59105;SDS011;44891;50.204;8.132;2023-07-29T05:04:24;4.10;;;3.70;;
59105;SDS011;44891;50.204;8.132;2023-07-29T05:08:26;3.80;;;3.42;;
59105;SDS011;44891;50.204;8.132;2023-07-29T05:12:30;3.67;;;3.38;;
59105;SDS011;44891;50.204;8.132;2023-07-29T05:16:33;3.97;;;3.60;;
59105;SDS011;44891;50.204;8.132;2023-07-29T05:20:36;3.47;;;3.10;;
59105;SDS011;44891;50.204;8.132;2023-07-29T05:24:39;3.90;;;3.50;;
59105;SDS011;44891;50.204;8.132;2023-07-29T05:28:43;3.72;;;3.22;;
59105;SDS011;44891;50.204;8.132;2023-07-29T05:32:45;3.75;;;3.22;;
59105;SDS011;44891;50.204;8.132;2023-07-29T05:36:48;3.85;;;3.42;;
59105;SDS011;44891;50.204;8.132;2023-07-29T05:40:51;3.85;;;3.42;;
59105;SDS011;44891;50.204;8.132;2023-07-29T05:44:54;3.70;;;3.40;;
59105;SDS011;44891;50.204;8.132;2023-07-29T05:48:56;4.00;;;3.60;;
59105;SDS011;44891;50.204;8.132;2023-07-29T05:52:59;4.30;;;3.50;;
59105;SDS011;44891;50.204;8.132;2023-07-29T05:57:01;4.20;;;3.80;;
59105;SDS011;44891;50.204;8.132;2023-07-29T06:01:05;3.92;;;3.63;;
59105;SDS011;44891;50.204;8.132;2023-07-29T06:05:08;4.07;;;3.67;;
59105;SDS011;44891;50.204;8.132;2023-07-29T06:09:10;5.43;;;3.90;;
59105;SDS011;44891;50.204;8.132;2023-07-29T06:13:12;4.93;;;3.75;;
59105;SDS011;44891;50.204;8.132;2023-07-29T06:17:16;4.82;;;3.75;;
59105;SDS011;44891;50.204;8.132;2023-07-29T06:21:18;6.18;;;3.72;;
59105;SDS011;44891;50.204;8.132;2023-07-29T06:25:21;4.03;;;3.63;;
59105;SDS011;44891;50.204;8.132;2023-07-29T06:29:23;4.75;;;3.75;;
59105;SDS011;44891;50.204;8.132;2023-07-29T06:33:27;5.82;;;3.30;;
59105;SDS011;44891;50.204;8.132;2023-07-29T06:37:29;6.13;;;3.72;;
59105;SDS011;44891;50.204;8.132;2023-07-29T06:41:33;4.25;;;3.85;;
59105;SDS011;44891;50.204;8.132;2023-07-29T06:45:38;3.72;;;3.42;;
59105;SDS011;44891;50.204;8.132;2023-07-29T06:49:41;5.13;;;3.78;;
59105;SDS011;44891;50.204;8.132;2023-07-29T06:53:44;4.65;;;3.80;;
59105;SDS011;44891;50.204;8.132;2023-07-29T06:57:46;4.55;;;3.75;;
59105;SDS011;44891;50.204;8.132;2023-07-29T07:01:48;4.78;;;3.78;;
59105;SDS011;44891;50.204;8.132;2023-07-29T07:05:52;4.25;;;3.65;;
59105;SDS011;44891;50.204;8.132;2023-07-29T07:09:54;4.25;;;3.63;;
59105;SDS011;44891;50.204;8.132;2023-07-29T07:13:57;3.97;;;3.67;;
59105;SDS011;44891;50.204;8.132;2023-07-29T07:17:59;4.35;;;3.70;;
59105;SDS011;44891;50.204;8.132;2023-07-29T07:22:03;4.50;;;3.70;;
59105;SDS011;44891;50.204;8.132;2023-07-29T07:26:05;3.78;;;3.47;;
59105;SDS011;44891;50.204;8.132;2023-07-29T07:30:08;5.10;;;3.90;;
59105;SDS011;44891;50.204;8.132;2023-07-29T07:34:11;3.72;;;3.42;;
59105;SDS011;44891;50.204;8.132;2023-07-29T07:38:14;3.53;;;3.25;;
59105;SDS011;44891;50.204;8.132;2023-07-29T07:42:17;3.33;;;3.03;;
59105;SDS011;44891;50.204;8.132;2023-07-29T07:46:19;3.22;;;2.92;;
59105;SDS011;44891;50.204;8.132;2023-07-29T07:50:21;3.90;;;3.30;;
59105;SDS011;44891;50.204;8.132;2023-07-29T07:54:26;3.53;;;3.00;;
59105;SDS011;44891;50.204;8.132;2023-07-29T07:58:28;2.90;;;2.70;;
59105;SDS011;44891;50.204;8.132;2023-07-29T08:02:30;3.20;;;2.90;;
59105;SDS011;44891;50.204;8.132;2023-07-29T08:06:33;3.20;;;2.90;;
59105;SDS011;44891;50.204;8.132;2023-07-29T08:10:37;3.03;;;2.72;;
59105;SDS011;44891;50.204;8.132;2023-07-29T08:14:39;3.13;;;2.63;;
59105;SDS011;44891;50.204;8.132;2023-07-29T08:18:42;3.00;;;2.70;;
59105;SDS011;44891;50.204;8.132;2023-07-29T08:22:45;3.08;;;2.75;;
59105;SDS011;44891;50.204;8.132;2023-07-29T08:26:48;2.80;;;2.60;;
59105;SDS011;44891;50.204;8.132;2023-07-29T08:30:50;3.63;;;3.00;;
59105;SDS011;44891;50.204;8.132;2023-07-29T08:34:53;3.55;;;2.65;;
59105;SDS011;44891;50.204;8.132;2023-07-29T08:38:55;2.60;;;2.40;;
59105;SDS011;44891;50.204;8.132;2023-07-29T08:42:59;2.40;;;2.20;;
59105;SDS011;44891;50.204;8.132;2023-07-29T08:47:07;2.45;;;2.20;;
59105;SDS011;44891;50.204;8.132;2023-07-29T08:51:10;2.55;;;2.35;;
59105;SDS011;44891;50.204;8.132;2023-07-29T08:55:14;2.50;;;2.30;;
59105;SDS011;44891;50.204;8.132;2023-07-29T08:59:17;3.00;;;2.20;;
59105;SDS011;44891;50.204;8.132;2023-07-29T09:03:21;2.00;;;1.88;;
59105;SDS011;44891;50.204;8.132;2023-07-29T09:07:23;2.60;;;1.70;;
59105;SDS011;44891;50.204;8.132;2023-07-29T09:11:28;2.10;;;1.90;;
59105;SDS011;44891;50.204;8.132;2023-07-29T09:15:32;3.17;;;2.00;;
59105;SDS011;44891;50.204;8.132;2023-07-29T09:19:35;2.55;;;1.98;;
59105;SDS011;44891;50.204;8.132;2023-07-29T09:23:39;2.05;;;1.70;;
59105;SDS011;44891;50.204;8.132;2023-07-29T09:27:42;2.08;;;1.80;;
59105;SDS011;44891;50.204;8.132;2023-07-29T09:31:48;1.98;;;1.60;;
59105;SDS011;44891;50.204;8.132;2023-07-29T09:35:51;2.10;;;1.90;;
59105;SDS011;44891;50.204;8.132;2023-07-29T09:39:54;2.95;;;1.80;;
59105;SDS011;44891;50.204;8.132;2023-07-29T09:43:57;2.58;;;2.10;;
59105;SDS011;44891;50.204;8.132;2023-07-29T09:48:02;3.05;;;1.88;;
59105;SDS011;44891;50.204;8.132;2023-07-29T09:52:14;2.60;;;2.00;;
59105;SDS011;44891;50.204;8.132;2023-07-29T09:56:18;2.42;;;1.80;;
59105;SDS011;44891;50.204;8.132;2023-07-29T10:00:26;1.88;;;1.77;;
59105;SDS011;44891;50.204;8.132;2023-07-29T10:04:30;2.00;;;1.80;;
59105;SDS011;44891;50.204;8.132;2023-07-29T10:08:34;2.42;;;2.20;;
59105;SDS011;44891;50.204;8.132;2023-07-29T10:12:39;2.53;;;2.00;;
59105;SDS011;44891;50.204;8.132;2023-07-29T10:16:43;2.35;;;2.15;;
59105;SDS011;44891;50.204;8.132;2023-07-29T10:20:48;3.10;;;2.10;;
59105;SDS011;44891;50.204;8.132;2023-07-29T10:24:52;2.13;;;1.90;;
59105;SDS011;44891;50.204;8.132;2023-07-29T10:28:59;2.67;;;2.30;;
59105;SDS011;44891;50.204;8.132;2023-07-29T10:33:05;2.80;;;2.20;;
59105;SDS011;44891;50.204;8.132;2023-07-29T10:37:10;3.63;;;2.35;;
59105;SDS011;44891;50.204;8.132;2023-07-29T10:41:15;3.60;;;2.10;;
59105;SDS011;44891;50.204;8.132;2023-07-29T10:45:18;2.13;;;1.80;;
59105;SDS011;44891;50.204;8.132;2023-07-29T10:49:23;2.22;;;1.75;;
59105;SDS011;44891;50.204;8.132;2023-07-29T10:53:34;2.20;;;1.83;;
59105;SDS011;44891;50.204;8.132;2023-07-29T10:57:39;3.50;;;1.80;;
59105;SDS011;44891;50.204;8.132;2023-07-29T11:01:43;1.92;;;1.60;;
59105;SDS011;44891;50.204;8.132;2023-07-29T11:05:53;1.90;;;1.80;;
59105;SDS011;44891;50.204;8.132;2023-07-29T11:09:57;2.22;;;2.03;;
59105;SDS011;44891;50.204;8.132;2023-07-29T11:14:02;2.05;;;1.70;;
59105;SDS011;44891;50.204;8.132;2023-07-29T11:18:08;3.03;;;2.10;;
59105;SDS011;44891;50.204;8.132;2023-07-29T11:22:12;2.17;;;1.85;;
59105;SDS011;44891;50.204;8.132;2023-07-29T11:26:16;2.10;;;1.90;;
59105;SDS011;44891;50.204;8.132;2023-07-29T11:30:18;2.40;;;1.80;;
59105;SDS011;44891;50.204;8.132;2023-07-29T11:34:30;2.03;;;1.83;;
59105;SDS011;44891;50.204;8.132;2023-07-29T11:38:33;3.78;;;1.88;;
59105;SDS011;44891;50.204;8.132;2023-07-29T11:42:42;3.63;;;2.13;;
59105;SDS011;44891;50.204;8.132;2023-07-29T11:46:45;2.13;;;1.83;;
59105;SDS011;44891;50.204;8.132;2023-07-29T11:50:49;2.22;;;1.80;;
59105;SDS011;44891;50.204;8.132;2023-07-29T11:54:51;2.30;;;2.10;;
59105;SDS011;44891;50.204;8.132;2023-07-29T11:58:56;2.22;;;1.80;;
59105;SDS011;44891;50.204;8.132;2023-07-29T12:02:59;2.85;;;2.00;;
59105;SDS011;44891;50.204;8.132;2023-07-29T12:07:02;2.42;;;2.10;;
59105;SDS011;44891;50.204;8.132;2023-07-29T12:11:05;2.65;;;1.92;;
59105;SDS011;44891;50.204;8.132;2023-07-29T12:15:10;1.98;;;1.70;;
59105;SDS011;44891;50.204;8.132;2023-07-29T12:19:12;2.75;;;1.90;;
59105;SDS011;44891;50.204;8.132;2023-07-29T12:23:15;2.63;;;1.90;;
59105;SDS011;44891;50.204;8.132;2023-07-29T12:27:17;2.40;;;2.10;;
59105;SDS011;44891;50.204;8.132;2023-07-29T12:31:21;1.90;;;1.80;;
59105;SDS011;44891;50.204;8.132;2023-07-29T12:35:36;2.85;;;2.00;;
59105;SDS011;44891;50.204;8.132;2023-07-29T12:39:40;2.53;;;2.05;;
59105;SDS011;44891;50.204;8.132;2023-07-29T12:43:43;2.15;;;1.95;;
59105;SDS011;44891;50.204;8.132;2023-07-29T12:47:48;2.60;;;2.03;;
59105;SDS011;44891;50.204;8.132;2023-07-29T12:51:52;2.00;;;1.90;;
59105;SDS011;44891;50.204;8.132;2023-07-29T12:55:54;2.78;;;2.20;;
59105;SDS011;44891;50.204;8.132;2023-07-29T12:59:58;2.30;;;2.00;;
59105;SDS011;44891;50.204;8.132;2023-07-29T13:04:02;10.35;;;2.40;;
59105;SDS011;44891;50.204;8.132;2023-07-29T13:08:04;2.45;;;2.17;;
59105;SDS011;44891;50.204;8.132;2023-07-29T13:12:07;3.42;;;2.00;;
59105;SDS011;44891;50.204;8.132;2023-07-29T13:16:10;2.20;;;1.88;;
59105;SDS011;44891;50.204;8.132;2023-07-29T13:20:16;2.40;;;1.90;;
59105;SDS011;44891;50.204;8.132;2023-07-29T13:24:18;1.73;;;1.63;;
59105;SDS011;44891;50.204;8.132;2023-07-29T13:28:20;2.45;;;1.75;;
59105;SDS011;44891;50.204;8.132;2023-07-29T13:32:23;1.98;;;1.65;;
59105;SDS011;44891;50.204;8.132;2023-07-29T13:36:27;4.20;;;1.70;;
59105;SDS011;44891;50.204;8.132;2023-07-29T13:40:29;4.32;;;1.80;;
59105;SDS011;44891;50.204;8.132;2023-07-29T13:44:33;1.77;;;1.67;;
59105;SDS011;44891;50.204;8.132;2023-07-29T13:48:36;2.63;;;1.60;;
59105;SDS011;44891;50.204;8.132;2023-07-29T13:52:40;2.10;;;1.90;;
59105;SDS011;44891;50.204;8.132;2023-07-29T13:56:42;3.08;;;1.80;;
59105;SDS011;44891;50.204;8.132;2023-07-29T14:00:44;2.00;;;1.80;;
59105;SDS011;44891;50.204;8.132;2023-07-29T14:04:47;3.58;;;1.80;;
59105;SDS011;44891;50.204;8.132;2023-07-29T14:08:52;2.60;;;1.95;;
59105;SDS011;44891;50.204;8.132;2023-07-29T14:12:54;1.90;;;1.80;;
59105;SDS011;44891;50.204;8.132;2023-07-29T14:16:56;2.13;;;1.92;;
59105;SDS011;44891;50.204;8.132;2023-07-29T14:20:59;2.22;;;1.90;;
59105;SDS011;44891;50.204;8.132;2023-07-29T14:25:05;4.00;;;2.03;;
59105;SDS011;44891;50.204;8.132;2023-07-29T14:29:09;2.90;;;1.90;;
59105;SDS011;44891;50.204;8.132;2023-07-29T14:33:11;2.35;;;1.83;;
59105;SDS011;44891;50.204;8.132;2023-07-29T14:37:15;2.42;;;2.05;;
59105;SDS011;44891;50.204;8.132;2023-07-29T14:41:19;6.05;;;2.20;;
59105;SDS011;44891;50.204;8.132;2023-07-29T14:45:21;6.95;;;1.90;;
59105;SDS011;44891;50.204;8.132;2023-07-29T14:49:24;3.08;;;1.80;;
59105;SDS011;44891;50.204;8.132;2023-07-29T14:53:27;2.22;;;1.90;;
59105;SDS011;44891;50.204;8.132;2023-07-29T14:57:31;2.20;;;1.80;;
59105;SDS011;44891;50.204;8.132;2023-07-29T15:01:34;1.95;;;1.85;;
59105;SDS011;44891;50.204;8.132;2023-07-29T15:05:37;2.70;;;1.90;;
59105;SDS011;44891;50.204;8.132;2023-07-29T15:09:39;1.90;;;1.60;;
59105;SDS011;44891;50.204;8.132;2023-07-29T15:13:43;1.85;;;1.73;;
59105;SDS011;44891;50.204;8.132;2023-07-29T15:17:45;1.90;;;1.70;;
59105;SDS011;44891;50.204;8.132;2023-07-29T15:21:48;2.60;;;1.90;;
59105;SDS011;44891;50.204;8.132;2023-07-29T15:25:50;2.28;;;2.08;;
59105;SDS011;44891;50.204;8.132;2023-07-29T15:29:58;2.30;;;2.10;;
59105;SDS011;44891;50.204;8.132;2023-07-29T15:34:00;2.83;;;2.08;;
59105;SDS011;44891;50.204;8.132;2023-07-29T15:38:02;2.10;;;1.90;;
59105;SDS011;44891;50.204;8.132;2023-07-29T15:42:05;2.10;;;1.90;;
59105;SDS011;44891;50.204;8.132;2023-07-29T15:46:09;2.13;;;1.90;;
59105;SDS011;44891;50.204;8.132;2023-07-29T15:50:11;2.20;;;1.98;;
59105;SDS011;44891;50.204;8.132;2023-07-29T15:54:14;1.70;;;1.60;;
59105;SDS011;44891;50.204;8.132;2023-07-29T15:58:16;2.30;;;1.98;;
59105;SDS011;44891;50.204;8.132;2023-07-29T16:02:21;2.45;;;2.25;;
59105;SDS011;44891;50.204;8.132;2023-07-29T16:06:25;1.95;;;1.80;;
59105;SDS011;44891;50.204;8.132;2023-07-29T16:10:28;1.77;;;1.58;;
59105;SDS011;44891;50.204;8.132;2023-07-29T16:14:30;1.85;;;1.75;;
59105;SDS011;44891;50.204;8.132;2023-07-29T16:18:35;3.70;;;1.92;;
59105;SDS011;44891;50.204;8.132;2023-07-29T16:22:37;2.17;;;1.80;;
59105;SDS011;44891;50.204;8.132;2023-07-29T16:26:41;1.98;;;1.80;;
59105;SDS011;44891;50.204;8.132;2023-07-29T16:30:44;1.98;;;1.83;;
59105;SDS011;44891;50.204;8.132;2023-07-29T16:34:48;1.90;;;1.80;;
59105;SDS011;44891;50.204;8.132;2023-07-29T16:38:50;2.10;;;1.90;;
59105;SDS011;44891;50.204;8.132;2023-07-29T16:42:54;2.85;;;1.80;;
59105;SDS011;44891;50.204;8.132;2023-07-29T16:46:59;2.75;;;1.90;;
59105;SDS011;44891;50.204;8.132;2023-07-29T16:51:04;1.92;;;1.58;;
59105;SDS011;44891;50.204;8.132;2023-07-29T16:55:09;1.98;;;1.60;;
59105;SDS011;44891;50.204;8.132;2023-07-29T16:59:11;2.75;;;1.80;;
59105;SDS011;44891;50.204;8.132;2023-07-29T17:03:15;2.67;;;1.70;;
59105;SDS011;44891;50.204;8.132;2023-07-29T17:07:21;2.75;;;1.73;;
59105;SDS011;44891;50.204;8.132;2023-07-29T17:11:25;2.65;;;1.80;;
59105;SDS011;44891;50.204;8.132;2023-07-29T17:15:29;2.00;;;1.80;;
59105;SDS011;44891;50.204;8.132;2023-07-29T17:19:31;2.70;;;1.90;;
59105;SDS011;44891;50.204;8.132;2023-07-29T17:23:35;2.28;;;1.90;;
59105;SDS011;44891;50.204;8.132;2023-07-29T17:27:40;2.47;;;2.00;;
59105;SDS011;44891;50.204;8.132;2023-07-29T17:31:43;1.80;;;1.70;;
59105;SDS011;44891;50.204;8.132;2023-07-29T17:35:47;2.15;;;1.95;;
59105;SDS011;44891;50.204;8.132;2023-07-29T17:39:53;4.03;;;1.90;;
59105;SDS011;44891;50.204;8.132;2023-07-29T17:43:56;2.10;;;1.90;;
59105;SDS011;44891;50.204;8.132;2023-07-29T17:47:59;2.30;;;1.90;;
59105;SDS011;44891;50.204;8.132;2023-07-29T17:52:02;2.45;;;1.90;;
59105;SDS011;44891;50.204;8.132;2023-07-29T17:56:08;2.33;;;2.00;;
59105;SDS011;44891;50.204;8.132;2023-07-29T18:00:11;2.17;;;1.75;;
59105;SDS011;44891;50.204;8.132;2023-07-29T18:04:21;1.95;;;1.80;;
59105;SDS011;44891;50.204;8.132;2023-07-29T18:08:24;2.47;;;2.03;;
59105;SDS011;44891;50.204;8.132;2023-07-29T18:12:28;2.20;;;2.00;;
59105;SDS011;44891;50.204;8.132;2023-07-29T18:16:31;1.90;;;1.70;;
59105;SDS011;44891;50.204;8.132;2023-07-29T18:20:33;2.10;;;1.90;;
59105;SDS011;44891;50.204;8.132;2023-07-29T18:24:36;2.50;;;2.00;;
59105;SDS011;44891;50.204;8.132;2023-07-29T18:28:41;2.20;;;2.00;;
59105;SDS011;44891;50.204;8.132;2023-07-29T18:32:43;2.53;;;2.08;;
59105;SDS011;44891;50.204;8.132;2023-07-29T18:36:45;2.17;;;1.98;;
59105;SDS011;44891;50.204;8.132;2023-07-29T18:40:48;3.20;;;2.10;;
59105;SDS011;44891;50.204;8.132;2023-07-29T18:44:53;2.30;;;2.10;;
59105;SDS011;44891;50.204;8.132;2023-07-29T18:48:56;2.10;;;1.90;;
59105;SDS011;44891;50.204;8.132;2023-07-29T18:52:59;3.17;;;2.20;;
59105;SDS011;44891;50.204;8.132;2023-07-29T18:57:02;2.92;;;2.08;;
59105;SDS011;44891;50.204;8.132;2023-07-29T19:01:07;3.42;;;2.28;;
59105;SDS011;44891;50.204;8.132;2023-07-29T19:05:11;3.15;;;2.60;;
59105;SDS011;44891;50.204;8.132;2023-07-29T19:09:16;3.40;;;2.30;;
59105;SDS011;44891;50.204;8.132;2023-07-29T19:13:19;3.38;;;2.20;;
59105;SDS011;44891;50.204;8.132;2023-07-29T19:17:24;2.58;;;2.10;;
59105;SDS011;44891;50.204;8.132;2023-07-29T19:21:27;2.78;;;2.15;;
59105;SDS011;44891;50.204;8.132;2023-07-29T19:25:29;2.65;;;2.10;;
59105;SDS011;44891;50.204;8.132;2023-07-29T19:29:31;2.80;;;2.38;;
59105;SDS011;44891;50.204;8.132;2023-07-29T19:33:36;2.90;;;2.60;;
59105;SDS011;44891;50.204;8.132;2023-07-29T19:37:43;2.63;;;2.38;;
59105;SDS011;44891;50.204;8.132;2023-07-29T19:41:48;2.83;;;2.40;;
59105;SDS011;44891;50.204;8.132;2023-07-29T19:45:51;7.10;;;3.53;;
59105;SDS011;44891;50.204;8.132;2023-07-29T19:50:03;6.15;;;4.07;;
59105;SDS011;44891;50.204;8.132;2023-07-29T19:54:06;3.92;;;2.90;;
59105;SDS011;44891;50.204;8.132;2023-07-29T19:58:09;5.50;;;3.47;;
59105;SDS011;44891;50.204;8.132;2023-07-29T20:02:12;5.10;;;3.60;;
59105;SDS011;44891;50.204;8.132;2023-07-29T20:06:16;4.05;;;3.10;;
59105;SDS011;44891;50.204;8.132;2023-07-29T20:10:19;4.20;;;2.88;;
59105;SDS011;44891;50.204;8.132;2023-07-29T20:14:21;3.25;;;2.70;;
59105;SDS011;44891;50.204;8.132;2023-07-29T20:18:24;3.42;;;2.05;;
59105;SDS011;44891;50.204;8.132;2023-07-29T20:22:31;3.30;;;2.50;;
59105;SDS011;44891;50.204;8.132;2023-07-29T20:26:34;8.35;;;3.00;;
59105;SDS011;44891;50.204;8.132;2023-07-29T20:30:37;3.80;;;2.17;;
59105;SDS011;44891;50.204;8.132;2023-07-29T20:34:41;4.30;;;2.15;;
59105;SDS011;44891;50.204;8.132;2023-07-29T20:38:45;3.95;;;1.95;;
59105;SDS011;44891;50.204;8.132;2023-07-29T20:42:47;3.45;;;1.40;;
59105;SDS011;44891;50.204;8.132;2023-07-29T20:46:52;2.00;;;1.60;;
59105;SDS011;44891;50.204;8.132;2023-07-29T20:50:55;2.00;;;1.55;;
59105;SDS011;44891;50.204;8.132;2023-07-29T20:54:59;2.60;;;1.83;;
59105;SDS011;44891;50.204;8.132;2023-07-29T20:59:01;3.28;;;2.00;;
59105;SDS011;44891;50.204;8.132;2023-07-29T21:03:06;3.60;;;1.80;;
59105;SDS011;44891;50.204;8.132;2023-07-29T21:07:09;2.53;;;2.13;;
59105;SDS011;44891;50.204;8.132;2023-07-29T21:11:12;2.20;;;1.80;;
59105;SDS011;44891;50.204;8.132;2023-07-29T21:15:15;1.92;;;1.70;;
59105;SDS011;44891;50.204;8.132;2023-07-29T21:19:20;2.38;;;1.90;;
59105;SDS011;44891;50.204;8.132;2023-07-29T21:23:24;3.05;;;1.90;;
59105;SDS011;44891;50.204;8.132;2023-07-29T21:27:28;3.33;;;2.20;;
59105;SDS011;44891;50.204;8.132;2023-07-29T21:31:31;2.83;;;1.90;;
59105;SDS011;44891;50.204;8.132;2023-07-29T21:35:33;1.90;;;1.70;;
59105;SDS011;44891;50.204;8.132;2023-07-29T21:39:36;2.08;;;1.67;;
59105;SDS011;44891;50.204;8.132;2023-07-29T21:43:39;2.45;;;1.80;;
59105;SDS011;44891;50.204;8.132;2023-07-29T21:47:41;3.85;;;1.70;;
59105;SDS011;44891;50.204;8.132;2023-07-29T21:51:44;3.08;;;1.90;;
59105;SDS011;44891;50.204;8.132;2023-07-29T21:55:46;1.60;;;1.48;;
59105;SDS011;44891;50.204;8.132;2023-07-29T21:59:51;1.70;;;1.60;;
59105;SDS011;44891;50.204;8.132;2023-07-29T22:03:54;2.60;;;1.83;;
59105;SDS011;44891;50.204;8.132;2023-07-29T22:07:57;1.60;;;1.50;;
59105;SDS011;44891;50.204;8.132;2023-07-29T22:11:59;2.33;;;1.52;;
59105;SDS011;44891;50.204;8.132;2023-07-29T22:16:03;2.33;;;1.70;;
59105;SDS011;44891;50.204;8.132;2023-07-29T22:20:06;3.13;;;1.70;;
59105;SDS011;44891;50.204;8.132;2023-07-29T22:24:10;2.25;;;1.90;;
59105;SDS011;44891;50.204;8.132;2023-07-29T22:28:13;3.53;;;1.70;;
59105;SDS011;44891;50.204;8.132;2023-07-29T22:32:17;2.00;;;1.73;;
59105;SDS011;44891;50.204;8.132;2023-07-29T22:36:22;2.72;;;1.70;;
59105;SDS011;44891;50.204;8.132;2023-07-29T22:40:24;2.17;;;1.60;;
59105;SDS011;44891;50.204;8.132;2023-07-29T22:44:27;1.80;;;1.70;;
59105;SDS011;44891;50.204;8.132;2023-07-29T22:48:31;2.00;;;1.80;;
59105;SDS011;44891;50.204;8.132;2023-07-29T22:52:35;1.92;;;1.83;;
59105;SDS011;44891;50.204;8.132;2023-07-29T22:56:37;2.60;;;2.00;;
59105;SDS011;44891;50.204;8.132;2023-07-29T23:00:40;3.00;;;1.92;;
59105;SDS011;44891;50.204;8.132;2023-07-29T23:04:45;3.53;;;2.22;;
59105;SDS011;44891;50.204;8.132;2023-07-29T23:08:48;3.08;;;2.20;;
59105;SDS011;44891;50.204;8.132;2023-07-29T23:12:50;2.40;;;2.20;;
59105;SDS011;44891;50.204;8.132;2023-07-29T23:16:55;2.60;;;2.10;;
59105;SDS011;44891;50.204;8.132;2023-07-29T23:20:58;2.55;;;2.25;;
59105;SDS011;44891;50.204;8.132;2023-07-29T23:25:00;2.50;;;2.30;;
59105;SDS011;44891;50.204;8.132;2023-07-29T23:29:03;3.67;;;2.22;;
59105;SDS011;44891;50.204;8.132;2023-07-29T23:33:05;3.20;;;2.38;;
59105;SDS011;44891;50.204;8.132;2023-07-29T23:37:09;2.97;;;2.33;;
59105;SDS011;44891;50.204;8.132;2023-07-29T23:41:13;3.53;;;2.58;;
59105;SDS011;44891;50.204;8.132;2023-07-29T23:45:16;4.07;;;2.50;;
59105;SDS011;44891;50.204;8.132;2023-07-29T23:49:18;3.03;;;2.60;;
59105;SDS011;44891;50.204;8.132;2023-07-29T23:53:22;2.53;;;2.33;;
59105;SDS011;44891;50.204;8.132;2023-07-29T23:57:24;3.22;;;2.70;;
